Wetterdaten: Woche 07.02.22 - 13.02.22 (KW6)
Datum Zeit Temp. Aussen Temp. o. S. Temp +5cm Feuchte Auss Luftdruck Regen Sonnenschein Regendauer Solar Windben Empfang
07.02.2022 00:00 3,7 C 3,0 C 0,7 C 92 % 1006,2 hPa 0,4 l/m 0,00 h 0,23 h 0 W/m 22,3 km/h (4 Bft) 97,36 %
07.02.2022 01:00 3,2 C 2,4 C 0,2 C 92 % 1008,1 hPa 0,6 l/m 0,00 h 0,27 h 0 W/m 25,0 km/h (4 Bft) 97,44 %
07.02.2022 02:00 3,3 C 2,6 C 0,5 C 92 % 1009,9 hPa 0,2 l/m 0,00 h 0,37 h 0 W/m 17,4 km/h (3 Bft) 99,27 %
07.02.2022 03:00 2,8 C 2,1 C -0,1 C 93 % 1012,3 hPa 0,2 l/m 0,00 h 0,30 h 0 W/m 21,2 km/h (4 Bft) 93,51 %
07.02.2022 04:00 2,5 C 1,9 C 0,0 C 93 % 1014,1 hPa 0,2 l/m 0,00 h 0,00 h 0 W/m 17,9 km/h (3 Bft) 97,94 %
07.02.2022 05:00 2,7 C 2,2 C 0,0 C 92 % 1015,7 hPa 0,0 l/m 0,00 h 0,00 h 0 W/m 16,8 km/h (3 Bft) 97,51 %
07.02.2022 06:00 3,3 C 2,9 C 0,7 C 91 % 1017,2 hPa 0,0 l/m 0,00 h 0,00 h 0 W/m 18,8 km/h (3 Bft) 97,22 %
07.02.2022 07:00 3,7 C 3,1 C 1,1 C 90 % 1018,6 hPa 0,0 l/m 0,00 h 0,00 h 0 W/m 20,9 km/h (4 Bft) 98,43 %
07.02.2022 08:00 3,7 C 3,2 C 1,1 C 91 % 1020,1 hPa 0,0 l/m 0,00 h 0,00 h 13 W/m 14,7 km/h (3 Bft) 97,56 %
07.02.2022 09:00 4,0 C 3,9 C 1,4 C 91 % 1021,8 hPa 0,0 l/m 0,33 h 0,00 h 81 W/m 14,2 km/h (3 Bft) 98,01 %
07.02.2022 10:00 5,3 C 8,2 C 2,5 C 89 % 1022,9 hPa 0,0 l/m 0,67 h 0,00 h 217 W/m 19,0 km/h (3 Bft) 97,86 %
07.02.2022 11:00 6,1 C 6,9 C 3,2 C 87 % 1024,2 hPa 0,0 l/m 0,30 h 0,00 h 160 W/m 17,8 km/h (3 Bft) 96,42 %
07.02.2022 12:00 6,4 C 6,6 C 3,3 C 87 % 1025,2 hPa 0,0 l/m 0,27 h 0,00 h 176 W/m 19,9 km/h (4 Bft) 95,27 %
07.02.2022 13:00 6,6 C 8,3 C 3,3 C 86 % 1025,5 hPa 0,0 l/m 0,40 h 0,00 h 245 W/m 17,7 km/h (3 Bft) 98,65 %
07.02.2022 14:00 7,4 C 9,0 C 3,7 C 80 % 1025,9 hPa 0,0 l/m 0,57 h 0,00 h 247 W/m 18,7 km/h (3 Bft) 97,87 %
07.02.2022 15:00 7,3 C 7,4 C 3,5 C 77 % 1026,6 hPa 0,0 l/m 0,37 h 0,00 h 132 W/m 15,4 km/h (3 Bft) 96,23 %
07.02.2022 16:00 6,8 C 6,3 C 2,9 C 77 % 1026,9 hPa 0,0 l/m 0,07 h 0,00 h 47 W/m 13,4 km/h (3 Bft) 97,60 %
07.02.2022 17:00 6,4 C 5,4 C 2,1 C 79 % 1027,1 hPa 0,0 l/m 0,00 h 0,00 h 15 W/m 7,5 km/h (2 Bft) 94,48 %
07.02.2022 18:00 6,0 C 5,1 C 2,0 C 80 % 1027,4 hPa 0,0 l/m 0,00 h 0,00 h 0 W/m 4,9 km/h (1 Bft) 98,86 %
07.02.2022 19:00 5,7 C 5,0 C 1,7 C 80 % 1027,7 hPa 0,0 l/m 0,00 h 0,00 h 0 W/m 6,8 km/h (2 Bft) 98,24 %
07.02.2022 20:00 5,8 C 5,3 C 1,8 C 79 % 1027,9 hPa 0,0 l/m 0,00 h 0,00 h 0 W/m 8,5 km/h (2 Bft) 96,37 %
07.02.2022 21:00 5,8 C 5,0 C 1,7 C 80 % 1028,0 hPa 0,0 l/m 0,00 h 0,00 h 0 W/m 10,8 km/h (2 Bft) 97,94 %
07.02.2022 22:00 5,6 C 4,9 C 1,7 C 80 % 1028,1 hPa 0,0 l/m 0,00 h 0,00 h 0 W/m 14,4 km/h (3 Bft) 97,86 %
07.02.2022 23:00 5,5 C 4,9 C 1,7 C 82 % 1028,0 hPa 0,0 l/m 0,00 h 0,00 h 0 W/m 13,4 km/h (3 Bft) 94,85 %
08.02.2022 00:00 5,7 C 5,1 C 1,9 C 84 % 1027,9 hPa 0,0 l/m 0,00 h 0,00 h 0 W/m 14,0 km/h (3 Bft) 98,66 %
08.02.2022 01:00 6,0 C 5,6 C 2,2 C 85 % 1027,7 hPa 0,0 l/m 0,00 h 0,00 h 0 W/m 20,9 km/h (4 Bft) 96,72 %
08.02.2022 02:00 5,7 C 5,0 C 1,8 C 91 % 1027,5 hPa 0,0 l/m 0,00 h 0,23 h 0 W/m 20,8 km/h (4 Bft) 97,55 %
08.02.2022 03:00 5,6 C 5,0 C 1,9 C 95 % 1027,2 hPa 0,0 l/m 0,00 h 0,53 h 0 W/m 18,1 km/h (3 Bft) 97,34 %
08.02.2022 04:00 6,0 C 5,6 C 2,6 C 96 % 1027,1 hPa 0,0 l/m 0,00 h 0,00 h 0 W/m 17,4 km/h (3 Bft) 98,24 %
08.02.2022 05:00 6,5 C 5,9 C 3,0 C 97 % 1027,2 hPa 0,0 l/m 0,00 h 0,13 h 0 W/m 17,0 km/h (3 Bft) 96,58 %
08.02.2022 06:00 6,7 C 6,1 C 3,3 C 97 % 1027,2 hPa 0,0 l/m 0,00 h 0,17 h 0 W/m 17,4 km/h (3 Bft) 96,30 %
08.02.2022 07:00 6,9 C 6,1 C 3,5 C 98 % 1027,2 hPa 0,0 l/m 0,00 h 0,23 h 0 W/m 17,7 km/h (3 Bft) 98,22 %
08.02.2022 08:00 7,3 C 6,8 C 4,1 C 98 % 1027,4 hPa 0,2 l/m 0,00 h 0,00 h 13 W/m 15,2 km/h (3 Bft) 97,36 %
08.02.2022 09:00 7,8 C 7,4 C 4,5 C 98 % 1027,5 hPa 0,0 l/m 0,00 h 0,00 h 43 W/m 17,1 km/h (3 Bft) 96,98 %
08.02.2022 10:00 8,6 C 8,4 C 5,5 C 96 % 1027,7 hPa 0,0 l/m 0,00 h 0,00 h 94 W/m 18,9 km/h (3 Bft) 98,65 %
08.02.2022 11:00 9,1 C 8,9 C 6,3 C 94 % 1027,9 hPa 0,0 l/m 0,00 h 0,00 h 108 W/m 21,1 km/h (4 Bft) 95,94 %
08.02.2022 12:00 9,7 C 9,5 C 6,8 C 91 % 1027,7 hPa 0,0 l/m 0,00 h 0,00 h 123 W/m 19,0 km/h (3 Bft) 96,53 %
08.02.2022 13:00 10,3 C 10,0 C 7,2 C 88 % 1027,5 hPa 0,0 l/m 0,00 h 0,00 h 121 W/m 19,4 km/h (3 Bft) 97,44 %
08.02.2022 14:00 10,7 C 10,6 C 7,2 C 86 % 1027,4 hPa 0,0 l/m 0,00 h 0,00 h 120 W/m 18,3 km/h (3 Bft) 98,36 %
08.02.2022 15:00 10,6 C 10,1 C 7,1 C 85 % 1027,4 hPa 0,0 l/m 0,00 h 0,00 h 66 W/m 18,9 km/h (3 Bft) 96,77 %
08.02.2022 16:00 10,5 C 9,9 C 6,7 C 86 % 1027,5 hPa 0,0 l/m 0,00 h 0,00 h 51 W/m 17,6 km/h (3 Bft) 98,15 %
08.02.2022 17:00 10,1 C 9,3 C 6,3 C 89 % 1027,6 hPa 0,0 l/m 0,00 h 0,00 h 10 W/m 12,9 km/h (3 Bft) 97,22 %
08.02.2022 18:00 9,8 C 8,9 C 6,1 C 89 % 1028,0 hPa 0,0 l/m 0,00 h 0,00 h 0 W/m 13,0 km/h (3 Bft) 98,80 %
08.02.2022 19:00 9,6 C 8,9 C 5,9 C 90 % 1028,3 hPa 0,0 l/m 0,00 h 0,00 h 0 W/m 14,0 km/h (3 Bft) 96,29 %
08.02.2022 20:00 9,6 C 8,9 C 5,9 C 89 % 1028,3 hPa 0,0 l/m 0,00 h 0,00 h 0 W/m 13,6 km/h (3 Bft) 97,79 %
08.02.2022 21:00 9,6 C 8,9 C 5,7 C 88 % 1028,4 hPa 0,0 l/m 0,00 h 0,00 h 0 W/m 10,7 km/h (2 Bft) 97,86 %
08.02.2022 22:00 9,4 C 8,8 C 5,6 C 89 % 1028,5 hPa 0,0 l/m 0,00 h 0,00 h 0 W/m 12,2 km/h (2 Bft) 97,93 %
08.02.2022 23:00 9,2 C 8,3 C 5,5 C 90 % 1028,4 hPa 0,0 l/m 0,00 h 0,00 h 0 W/m 10,1 km/h (2 Bft) 96,16 %
09.02.2022 00:00 9,0 C 8,3 C 5,1 C 92 % 1028,2 hPa 0,0 l/m 0,00 h 0,00 h 0 W/m 11,4 km/h (2 Bft) 95,41 %
09.02.2022 01:00 8,9 C 8,3 C 5,4 C 92 % 1028,1 hPa 0,0 l/m 0,00 h 0,00 h 0 W/m 13,7 km/h (3 Bft) 95,80 %
09.02.2022 02:00 8,7 C 7,8 C 5,0 C 92 % 1027,8 hPa 0,0 l/m 0,00 h 0,00 h 0 W/m 14,6 km/h (3 Bft) 98,36 %
09.02.2022 03:00 8,7 C 7,8 C 5,0 C 94 % 1027,5 hPa 0,0 l/m 0,00 h 0,00 h 0 W/m 16,7 km/h (3 Bft) 97,65 %
09.02.2022 04:00 8,6 C 7,8 C 5,0 C 95 % 1027,2 hPa 0,0 l/m 0,00 h 0,00 h 0 W/m 18,9 km/h (3 Bft) 96,34 %
09.02.2022 05:00 8,4 C 7,8 C 5,3 C 93 % 1026,8 hPa 0,0 l/m 0,00 h 0,00 h 0 W/m 17,7 km/h (3 Bft) 98,15 %
09.02.2022 06:00 8,6 C 7,8 C 5,0 C 90 % 1026,6 hPa 0,0 l/m 0,00 h 0,00 h 0 W/m 12,8 km/h (3 Bft) 98,32 %
09.02.2022 07:00 8,6 C 7,8 C 5,0 C 90 % 1026,6 hPa 0,0 l/m 0,00 h 0,00 h 0 W/m 13,1 km/h (3 Bft) 95,48 %
09.02.2022 08:00 8,4 C 7,8 C 4,9 C 93 % 1026,7 hPa 0,0 l/m 0,00 h 0,00 h 22 W/m 18,1 km/h (3 Bft) 99,57 %
09.02.2022 09:00 8,7 C 8,5 C 5,7 C 92 % 1026,5 hPa 0,0 l/m 0,00 h 0,00 h 68 W/m 20,5 km/h (4 Bft) 94,81 %
09.02.2022 10:00 9,3 C 8,9 C 6,1 C 88 % 1026,3 hPa 0,0 l/m 0,03 h 0,00 h 90 W/m 21,5 km/h (4 Bft) 97,37 %
09.02.2022 11:00 9,5 C 9,4 C 6,4 C 88 % 1026,4 hPa 0,0 l/m 0,00 h 0,00 h 135 W/m 22,4 km/h (4 Bft) 96,64 %
09.02.2022 12:00 10,1 C 10,5 C 7,2 C 86 % 1026,2 hPa 0,0 l/m 0,33 h 0,00 h 198 W/m 23,6 km/h (4 Bft) 96,94 %
09.02.2022 13:00 10,4 C 10,5 C 7,2 C 84 % 1025,8 hPa 0,0 l/m 0,00 h 0,00 h 136 W/m 17,3 km/h (3 Bft) 96,38 %
09.02.2022 14:00 10,7 C 10,7 C 7,3 C 83 % 1025,4 hPa 0,0 l/m 0,20 h 0,00 h 138 W/m 17,8 km/h (3 Bft) 99,00 %
09.02.2022 15:00 10,6 C 10,3 C 7,1 C 82 % 1025,1 hPa 0,0 l/m 0,10 h 0,00 h 92 W/m 14,9 km/h (3 Bft) 96,87 %
09.02.2022 16:00 10,7 C 10,2 C 6,7 C 81 % 1024,9 hPa 0,0 l/m 0,10 h 0,00 h 54 W/m 12,1 km/h (2 Bft) 97,73 %
09.02.2022 17:00 10,1 C 8,9 C 5,7 C 82 % 1024,7 hPa 0,0 l/m 0,00 h 0,00 h 12 W/m 6,1 km/h (2 Bft) 97,30 %
09.02.2022 18:00 9,6 C 8,7 C 5,5 C 84 % 1024,8 hPa 0,0 l/m 0,00 h 0,00 h 0 W/m 2,4 km/h (1 Bft) 97,35 %
09.02.2022 19:00 9,2 C 7,6 C 4,1 C 85 % 1024,4 hPa 0,0 l/m 0,00 h 0,00 h 0 W/m 0,3 km/h (0 Bft) 98,09 %
09.02.2022 20:00 8,0 C 6,3 C 3,1 C 87 % 1024,1 hPa 0,0 l/m 0,00 h 0,00 h 0 W/m 2,2 km/h (1 Bft) 97,93 %
09.02.2022 21:00 7,4 C 6,6 C 3,8 C 91 % 1023,8 hPa 0,0 l/m 0,00 h 0,00 h 0 W/m 6,3 km/h (2 Bft) 96,30 %
09.02.2022 22:00 7,4 C 6,7 C 3,9 C 91 % 1023,6 hPa 0,0 l/m 0,00 h 0,00 h 0 W/m 3,9 km/h (1 Bft) 98,85 %
09.02.2022 23:00 7,7 C 7,1 C 4,3 C 92 % 1023,0 hPa 0,0 l/m 0,00 h 0,00 h 0 W/m 6,6 km/h (2 Bft) 96,48 %
10.02.2022 00:00 7,7 C 6,9 C 4,1 C 91 % 1022,4 hPa 0,0 l/m 0,00 h 0,00 h 0 W/m 4,8 km/h (1 Bft) 93,72 %
10.02.2022 01:00 7,2 C 5,9 C 3,2 C 92 % 1021,8 hPa 0,0 l/m 0,00 h 0,00 h 0 W/m 1,4 km/h (1 Bft) 97,94 %
10.02.2022 02:00 6,0 C 4,4 C 1,9 C 92 % 1021,3 hPa 0,0 l/m 0,00 h 0,00 h 0 W/m 3,5 km/h (1 Bft) 97,72 %
10.02.2022 03:00 5,6 C 5,0 C 2,4 C 94 % 1020,6 hPa 0,0 l/m 0,00 h 0,00 h 0 W/m 7,4 km/h (2 Bft) 97,08 %
10.02.2022 04:00 5,1 C 4,0 C 1,8 C 95 % 1019,5 hPa 0,0 l/m 0,00 h 0,00 h 0 W/m 8,2 km/h (2 Bft) 97,90 %
10.02.2022 05:00 4,3 C 3,5 C 1,3 C 95 % 1019,5 hPa 0,0 l/m 0,00 h 0,00 h 0 W/m 5,0 km/h (1 Bft) 98,16 %
10.02.2022 06:00 4,4 C 4,0 C 1,9 C 96 % 1019,3 hPa 0,0 l/m 0,00 h 0,00 h 0 W/m 5,3 km/h (1 Bft) 94,88 %
10.02.2022 07:00 4,6 C 4,4 C 2,2 C 97 % 1019,2 hPa 0,0 l/m 0,00 h 0,00 h 0 W/m 0,4 km/h (0 Bft) 99,22 %
10.02.2022 08:00 5,3 C 5,1 C 2,8 C 97 % 1019,6 hPa 0,0 l/m 0,00 h 0,00 h 10 W/m 3,2 km/h (1 Bft) 95,30 %
10.02.2022 09:00 6,1 C 5,8 C 3,3 C 96 % 1019,9 hPa 0,0 l/m 0,00 h 0,27 h 34 W/m 10,8 km/h (2 Bft) 97,43 %
10.02.2022 10:00 6,7 C 6,5 C 3,7 C 95 % 1020,1 hPa 0,2 l/m 0,00 h 0,20 h 65 W/m 13,3 km/h (3 Bft) 98,37 %
10.02.2022 11:00 6,9 C 6,1 C 3,7 C 96 % 1020,5 hPa 0,0 l/m 0,00 h 0,27 h 43 W/m 13,2 km/h (3 Bft) 97,40 %
10.02.2022 12:00 6,9 C 6,1 C 3,9 C 97 % 1020,7 hPa 0,8 l/m 0,00 h 0,43 h 39 W/m 10,1 km/h (2 Bft) 97,05 %
10.02.2022 13:00 6,9 C 6,4 C 4,1 C 98 % 1020,8 hPa 0,4 l/m 0,00 h 0,40 h 62 W/m 8,3 km/h (2 Bft) 97,07 %
10.02.2022 14:00 7,1 C 6,9 C 4,4 C 98 % 1020,7 hPa 0,0 l/m 0,03 h 0,03 h 86 W/m 3,6 km/h (1 Bft) 97,51 %
10.02.2022 15:00 7,9 C 9,2 C 5,0 C 98 % 1020,7 hPa 0,0 l/m 0,80 h 0,00 h 182 W/m 6,4 km/h (2 Bft) 96,43 %
10.02.2022 16:00 8,1 C 7,5 C 4,5 C 93 % 1021,0 hPa 0,2 l/m 0,00 h 0,00 h 36 W/m 3,6 km/h (1 Bft) 97,79 %
10.02.2022 17:00 7,3 C 6,4 C 3,7 C 92 % 1021,1 hPa 0,2 l/m 0,00 h 0,73 h 13 W/m 4,2 km/h (1 Bft) 98,20 %
10.02.2022 18:00 6,5 C 5,6 C 3,3 C 93 % 1021,0 hPa 0,0 l/m 0,00 h 0,10 h 0 W/m 3,4 km/h (1 Bft) 96,68 %
10.02.2022 19:00 6,0 C 5,3 C 2,8 C 93 % 1021,5 hPa 0,4 l/m 0,00 h 0,50 h 0 W/m 10,0 km/h (2 Bft) 96,97 %
10.02.2022 20:00 5,0 C 4,3 C 1,7 C 92 % 1022,0 hPa 0,4 l/m 0,00 h 0,73 h 0 W/m 15,3 km/h (3 Bft) 99,72 %
10.02.2022 21:00 4,2 C 3,5 C 1,1 C 92 % 1022,5 hPa 0,4 l/m 0,00 h 0,93 h 0 W/m 12,2 km/h (2 Bft) 96,35 %
10.02.2022 22:00 3,8 C 3,1 C 1,0 C 94 % 1022,5 hPa 0,2 l/m 0,00 h 0,33 h 0 W/m 9,4 km/h (2 Bft) 97,35 %
10.02.2022 23:00 3,5 C 2,8 C 0,8 C 95 % 1022,6 hPa 0,2 l/m 0,00 h 0,27 h 0 W/m 15,8 km/h (3 Bft) 98,30 %
11.02.2022 00:00 3,4 C 2,8 C 0,6 C 95 % 1022,6 hPa 0,0 l/m 0,00 h 0,00 h 0 W/m 12,0 km/h (2 Bft) 96,15 %
11.02.2022 01:00 3,0 C 2,2 C 0,1 C 95 % 1022,7 hPa 0,0 l/m 0,00 h 0,00 h 0 W/m 10,4 km/h (2 Bft) 95,77 %
11.02.2022 02:00 2,5 C 1,7 C -0,1 C 96 % 1022,6 hPa 0,0 l/m 0,00 h 0,00 h 0 W/m 9,9 km/h (2 Bft) 96,51 %
11.02.2022 03:00 2,2 C 1,6 C -0,6 C 96 % 1022,6 hPa 0,0 l/m 0,00 h 0,00 h 0 W/m 12,0 km/h (2 Bft) 98,08 %
11.02.2022 04:00 2,1 C 1,5 C -0,4 C 96 % 1022,7 hPa 0,2 l/m 0,00 h 0,10 h 0 W/m 12,7 km/h (3 Bft) 95,64 %
11.02.2022 05:00 2,9 C 2,3 C 0,5 C 97 % 1023,2 hPa 0,4 l/m 0,00 h 0,57 h 0 W/m 12,5 km/h (3 Bft) 97,05 %
11.02.2022 06:00 3,3 C 2,7 C 0,6 C 96 % 1023,7 hPa 0,0 l/m 0,00 h 0,10 h 0 W/m 18,4 km/h (3 Bft) 97,65 %
11.02.2022 07:00 3,8 C 3,2 C 1,1 C 95 % 1024,6 hPa 0,0 l/m 0,00 h 0,03 h 0 W/m 18,1 km/h (3 Bft) 97,65 %
11.02.2022 08:00 4,0 C 3,4 C 1,1 C 94 % 1026,1 hPa 0,0 l/m 0,00 h 0,17 h 21 W/m 18,8 km/h (3 Bft) 96,99 %
11.02.2022 09:00 4,4 C 4,5 C 1,1 C 90 % 1027,5 hPa 0,0 l/m 0,20 h 0,00 h 86 W/m 20,6 km/h (4 Bft) 96,73 %
11.02.2022 10:00 5,4 C 8,4 C 2,0 C 84 % 1028,7 hPa 0,0 l/m 0,97 h 0,00 h 254 W/m 25,2 km/h (4 Bft) 98,16 %
11.02.2022 11:00 6,1 C 9,8 C 3,1 C 80 % 1029,9 hPa 0,0 l/m 0,87 h 0,00 h 309 W/m 27,5 km/h (4 Bft) 98,08 %
11.02.2022 12:00 6,4 C 8,4 C 3,4 C 73 % 1030,8 hPa 0,0 l/m 0,63 h 0,00 h 251 W/m 30,7 km/h (5 Bft) 98,95 %
11.02.2022 13:00 7,0 C 10,1 C 3,4 C 66 % 1031,2 hPa 0,0 l/m 0,60 h 0,00 h 300 W/m 26,5 km/h (4 Bft) 97,08 %
11.02.2022 14:00 7,9 C 11,6 C 3,7 C 61 % 1031,6 hPa 0,0 l/m 0,97 h 0,00 h 403 W/m 22,8 km/h (4 Bft) 94,88 %
11.02.2022 15:00 7,1 C 7,7 C 3,0 C 59 % 1032,2 hPa 0,0 l/m 0,73 h 0,00 h 189 W/m 22,5 km/h (4 Bft) 99,22 %
11.02.2022 16:00 6,5 C 5,9 C 2,2 C 61 % 1032,7 hPa 0,0 l/m 0,27 h 0,00 h 65 W/m 16,2 km/h (3 Bft) 97,58 %
11.02.2022 17:00 5,4 C 4,5 C 1,0 C 67 % 1033,3 hPa 0,0 l/m 0,00 h 0,00 h 17 W/m 4,6 km/h (1 Bft) 96,92 %
11.02.2022 18:00 4,6 C 3,4 C -0,0 C 71 % 1033,9 hPa 0,0 l/m 0,00 h 0,00 h 0 W/m 2,3 km/h (1 Bft) 98,61 %
11.02.2022 19:00 3,9 C 2,3 C -1,4 C 74 % 1034,1 hPa 0,0 l/m 0,00 h 0,00 h 0 W/m 0,7 km/h (0 Bft) 95,31 %
11.02.2022 20:00 2,8 C 1,3 C -2,2 C 79 % 1034,5 hPa 0,0 l/m 0,00 h 0,00 h 0 W/m 0,5 km/h (0 Bft) 96,61 %
11.02.2022 21:00 2,7 C 2,2 C -1,3 C 80 % 1034,8 hPa 0,0 l/m 0,00 h 0,00 h 0 W/m 0,6 km/h (0 Bft) 96,42 %
11.02.2022 22:00 2,6 C 1,3 C -1,8 C 81 % 1034,8 hPa 0,0 l/m 0,00 h 0,00 h 0 W/m 1,0 km/h (0 Bft) 98,15 %
11.02.2022 23:00 1,5 C -0,0 C -2,9 C 84 % 1034,6 hPa 0,0 l/m 0,00 h 0,00 h 0 W/m 2,2 km/h (1 Bft) 91,78 %
12.02.2022 00:00 0,8 C -0,5 C -3,5 C 85 % 1034,6 hPa 0,0 l/m 0,00 h 0,00 h 0 W/m 2,6 km/h (1 Bft) 97,37 %
12.02.2022 01:00 0,0 C -1,5 C -4,2 C 87 % 1034,5 hPa 0,0 l/m 0,00 h 0,00 h 0 W/m 1,4 km/h (1 Bft) 93,45 %
12.02.2022 02:00 -0,7 C -1,7 C -4,3 C 88 % 1034,1 hPa 0,0 l/m 0,00 h 0,00 h 0 W/m 2,5 km/h (1 Bft) 98,43 %
12.02.2022 03:00 -0,9 C -1,7 C -4,2 C 90 % 1033,6 hPa 0,0 l/m 0,00 h 0,00 h 0 W/m 6,9 km/h (2 Bft) 96,18 %
12.02.2022 04:00 -1,1 C -1,7 C -4,4 C 91 % 1033,2 hPa 0,0 l/m 0,00 h 0,00 h 0 W/m 9,5 km/h (2 Bft) 98,16 %
12.02.2022 05:00 -1,2 C -1,8 C -4,4 C 91 % 1032,7 hPa 0,0 l/m 0,00 h 0,00 h 0 W/m 11,1 km/h (2 Bft) 98,15 %
12.02.2022 06:00 -1,5 C -2,2 C -4,4 C 92 % 1032,3 hPa 0,0 l/m 0,00 h 0,00 h 0 W/m 12,2 km/h (2 Bft) 93,65 %
12.02.2022 07:00 -1,7 C -2,2 C -4,5 C 92 % 1031,8 hPa 0,0 l/m 0,00 h 0,00 h 7 W/m 10,5 km/h (2 Bft) 97,22 %
12.02.2022 08:00 -1,4 C -1,8 C -4,2 C 93 % 1031,6 hPa 0,0 l/m 0,23 h 0,00 h 34 W/m 13,1 km/h (3 Bft) 98,72 %
12.02.2022 09:00 -0,8 C -0,6 C -3,4 C 93 % 1031,3 hPa 0,0 l/m 0,00 h 0,00 h 80 W/m 14,4 km/h (3 Bft) 96,73 %
12.02.2022 10:00 0,4 C 2,3 C -2,1 C 92 % 1030,9 hPa 0,0 l/m 0,73 h 0,00 h 173 W/m 14,1 km/h (3 Bft) 96,06 %
12.02.2022 11:00 2,3 C 7,2 C -0,0 C 87 % 1030,2 hPa 0,0 l/m 0,77 h 0,00 h 277 W/m 16,6 km/h (3 Bft) 99,29 %
12.02.2022 12:00 4,7 C 8,2 C 2,8 C 76 % 1029,2 hPa 0,0 l/m 0,53 h 0,00 h 230 W/m 18,8 km/h (3 Bft) 97,20 %
12.02.2022 13:00 6,7 C 13,9 C 2,8 C 67 % 1028,0 hPa 0,0 l/m 1,00 h 0,00 h 430 W/m 20,4 km/h (4 Bft) 98,29 %
12.02.2022 14:00 7,7 C 11,5 C 3,1 C 61 % 1026,9 hPa 0,0 l/m 1,00 h 0,00 h 395 W/m 24,0 km/h (4 Bft) 95,22 %
12.02.2022 15:00 7,7 C 9,3 C 2,8 C 60 % 1025,8 hPa 0,0 l/m 1,00 h 0,00 h 275 W/m 22,2 km/h (4 Bft) 96,58 %
12.02.2022 16:00 7,1 C 6,3 C 2,2 C 64 % 1024,6 hPa 0,0 l/m 0,13 h 0,00 h 54 W/m 17,0 km/h (3 Bft) 99,43 %
12.02.2022 17:00 5,9 C 4,8 C 1,1 C 68 % 1024,0 hPa 0,0 l/m 0,00 h 0,00 h 14 W/m 15,7 km/h (3 Bft) 96,37 %
12.02.2022 18:00 4,4 C 3,5 C 0,1 C 75 % 1023,7 hPa 0,0 l/m 0,00 h 0,00 h 0 W/m 14,4 km/h (3 Bft) 98,12 %
12.02.2022 19:00 3,7 C 2,9 C -0,5 C 78 % 1023,5 hPa 0,0 l/m 0,00 h 0,00 h 0 W/m 13,5 km/h (3 Bft) 97,72 %
12.02.2022 20:00 3,2 C 2,3 C -1,0 C 78 % 1022,9 hPa 0,0 l/m 0,00 h 0,00 h 0 W/m 14,2 km/h (3 Bft) 97,51 %
12.02.2022 21:00 2,7 C 1,9 C -1,4 C 79 % 1022,3 hPa 0,0 l/m 0,00 h 0,00 h 0 W/m 16,1 km/h (3 Bft) 96,16 %
12.02.2022 22:00 2,2 C 1,3 C -1,9 C 81 % 1021,7 hPa 0,0 l/m 0,00 h 0,00 h 0 W/m 14,1 km/h (3 Bft) 98,86 %
12.02.2022 23:00 1,5 C 0,6 C -2,3 C 84 % 1021,4 hPa 0,0 l/m 0,00 h 0,00 h 0 W/m 14,6 km/h (3 Bft) 97,71 %
13.02.2022 00:00 1,1 C 0,5 C -2,7 C 86 % 1020,9 hPa 0,0 l/m 0,00 h 0,00 h 0 W/m 17,5 km/h (3 Bft) 96,11 %
13.02.2022 01:00 0,8 C 0,0 C -2,8 C 87 % 1020,2 hPa 0,0 l/m 0,00 h 0,00 h 0 W/m 17,1 km/h (3 Bft) 96,30 %
13.02.2022 02:00 0,6 C 0,0 C -3,2 C 86 % 1019,8 hPa 0,0 l/m 0,00 h 0,00 h 0 W/m 17,1 km/h (3 Bft) 98,58 %
13.02.2022 03:00 0,3 C -0,5 C -3,3 C 86 % 1019,4 hPa 0,0 l/m 0,00 h 0,00 h 0 W/m 15,8 km/h (3 Bft) 94,99 %
13.02.2022 04:00 0,0 C -0,8 C -3,6 C 86 % 1018,5 hPa 0,0 l/m 0,00 h 0,00 h 0 W/m 15,9 km/h (3 Bft) 97,86 %
13.02.2022 05:00 -0,3 C -1,1 C -3,9 C 86 % 1017,9 hPa 0,0 l/m 0,00 h 0,00 h 0 W/m 15,8 km/h (3 Bft) 98,79 %
13.02.2022 06:00 -0,4 C -1,1 C -3,9 C 87 % 1017,3 hPa 0,0 l/m 0,00 h 0,00 h 0 W/m 16,8 km/h (3 Bft) 95,23 %
13.02.2022 07:00 -0,4 C -1,1 C -3,9 C 87 % 1017,0 hPa 0,0 l/m 0,00 h 0,00 h 6 W/m 15,9 km/h (3 Bft) 97,92 %
13.02.2022 08:00 -0,3 C -0,6 C -3,6 C 87 % 1016,4 hPa 0,0 l/m 0,10 h 0,00 h 36 W/m 18,0 km/h (3 Bft) 96,12 %
13.02.2022 09:00 1,1 C 1,8 C -2,3 C 84 % 1015,9 hPa 0,0 l/m 0,53 h 0,00 h 116 W/m 20,8 km/h (4 Bft) 96,12 %
13.02.2022 10:00 3,3 C 7,1 C -0,4 C 78 % 1015,5 hPa 0,0 l/m 1,00 h 0,00 h 283 W/m 20,7 km/h (4 Bft) 98,65 %
13.02.2022 11:00 5,6 C 10,3 C 2,5 C 71 % 1014,9 hPa 0,0 l/m 1,00 h 0,00 h 338 W/m 19,4 km/h (3 Bft) 99,07 %
13.02.2022 12:00 7,1 C 9,5 C 4,1 C 67 % 1013,9 hPa 0,0 l/m 0,83 h 0,00 h 259 W/m 19,6 km/h (3 Bft) 95,30 %
13.02.2022 13:00 8,8 C 13,6 C 4,4 C 64 % 1012,6 hPa 0,0 l/m 1,00 h 0,00 h 379 W/m 19,0 km/h (3 Bft) 97,79 %
13.02.2022 14:00 10,6 C 13,3 C 5,6 C 61 % 1011,0 hPa 0,0 l/m 1,00 h 0,00 h 316 W/m 17,8 km/h (3 Bft) 96,22 %
13.02.2022 15:00 11,6 C 12,7 C 6,4 C 63 % 1009,6 hPa 0,0 l/m 1,00 h 0,00 h 250 W/m 26,6 km/h (4 Bft) 98,74 %
13.02.2022 16:00 10,7 C 10,1 C 5,6 C 69 % 1008,6 hPa 0,0 l/m 0,17 h 0,00 h 81 W/m 22,2 km/h (4 Bft) 97,86 %
13.02.2022 17:00 9,5 C 8,5 C 4,5 C 72 % 1007,9 hPa 0,0 l/m 0,10 h 0,00 h 24 W/m 20,7 km/h (4 Bft) 96,51 %
13.02.2022 18:00 8,7 C 7,8 C 3,9 C 75 % 1007,2 hPa 0,0 l/m 0,00 h 0,00 h 0 W/m 23,5 km/h (4 Bft) 99,08 %
13.02.2022 19:00 8,5 C 7,6 C 3,9 C 74 % 1006,5 hPa 0,0 l/m 0,00 h 0,00 h 0 W/m 24,9 km/h (4 Bft) 97,28 %
13.02.2022 20:00 8,2 C 7,2 C 3,5 C 73 % 1005,7 hPa 0,0 l/m 0,00 h 0,00 h 0 W/m 28,0 km/h (4 Bft) 97,16 %
13.02.2022 21:00 8,2 C 7,2 C 3,4 C 73 % 1005,1 hPa 0,0 l/m 0,00 h 0,00 h 0 W/m 26,2 km/h (4 Bft) 98,28 %
13.02.2022 22:00 7,9 C 7,2 C 3,3 C 75 % 1004,6 hPa 0,0 l/m 0,00 h 0,00 h 0 W/m 25,2 km/h (4 Bft) 97,37 %
13.02.2022 23:00 7,8 C 7,2 C 3,3 C 76 % 1004,0 hPa 0,0 l/m 0,00 h 0,00 h 0 W/m 24,4 km/h (4 Bft) 97,02 %
Min-Datum _ 12.02.22 12.02.22 12.02.22 11.02.22 13.02.22 - - - - 09.02.22 10.02.22
_ Min-Zeit 07:14 05:36 07:12 14:28 23:46 - - - - 17:40 00:02
Minimum _ -1,7 C -2,2 C -5,0 C 58 % 1003,8 hPa - - - - 0,0 km/h (0 Bft) 7,14 %
Max-Datum _ 13.02.22 12.02.22 09.02.22 10.02.22 11.02.22 10.02.22 11.02.22 07.02.22 11.02.22 07.02.22 07.02.22
_ Max-Zeit 15:10 13:06 12:56 15:06 21:56 12:10 12:08 00:14 13:02 01:10 00:28
Maximum _ 11,8 C 15,6 C 7,8 C 99 % 1034,9 hPa 0,8 l/m 0,07 h 0,03 h 580 W/m 57,9 km/h
NO (7 Bft)
100,00 %
Durchschnitt _ 5,7 C 5,5 C 2,1 C 86 % 1023,8 hPa #5,8 l/m #21:56 h #8:38 h 133 W/m 14,3 km/h (3 Bft) 97,21 %
© 2022 W. Hausmann